sensor_id;sensor_type;location;lat;lon;timestamp;pressure;altitude;pressure_sealevel;temperature;humidity
36222;BME280;22266;52.340;4.962;2024-02-14T00:00:38;101136.91;;;8.11;100.00
36222;BME280;22266;52.340;4.962;2024-02-14T00:03:06;101129.69;;;8.12;100.00
36222;BME280;22266;52.340;4.962;2024-02-14T00:05:33;101133.38;;;8.11;100.00
36222;BME280;22266;52.340;4.962;2024-02-14T00:08:00;101129.00;;;8.10;100.00
36222;BME280;22266;52.340;4.962;2024-02-14T00:10:26;101131.56;;;8.03;100.00
36222;BME280;22266;52.340;4.962;2024-02-14T00:12:53;101128.88;;;8.03;100.00
36222;BME280;22266;52.340;4.962;2024-02-14T00:15:20;101130.84;;;8.09;100.00
36222;BME280;22266;52.340;4.962;2024-02-14T00:17:46;101111.25;;;8.09;100.00
36222;BME280;22266;52.340;4.962;2024-02-14T00:20:13;101110.09;;;8.11;100.00
36222;BME280;22266;52.340;4.962;2024-02-14T00:22:40;101108.25;;;8.12;100.00
36222;BME280;22266;52.340;4.962;2024-02-14T00:25:07;101096.16;;;8.16;100.00
36222;BME280;22266;52.340;4.962;2024-02-14T00:27:33;101108.06;;;8.13;100.00
36222;BME280;22266;52.340;4.962;2024-02-14T00:30:00;101092.16;;;8.12;100.00
36222;BME280;22266;52.340;4.962;2024-02-14T00:32:27;101095.00;;;8.10;100.00
36222;BME280;22266;52.340;4.962;2024-02-14T00:34:54;101102.69;;;8.13;100.00
36222;BME280;22266;52.340;4.962;2024-02-14T00:37:20;101107.41;;;8.11;100.00
36222;BME280;22266;52.340;4.962;2024-02-14T00:39:47;101089.47;;;8.12;100.00
36222;BME280;22266;52.340;4.962;2024-02-14T00:42:16;101088.44;;;8.21;100.00
36222;BME280;22266;52.340;4.962;2024-02-14T00:44:43;101093.28;;;8.17;100.00
36222;BME280;22266;52.340;4.962;2024-02-14T00:47:09;101090.47;;;8.11;100.00
36222;BME280;22266;52.340;4.962;2024-02-14T00:49:36;101088.13;;;8.16;100.00
36222;BME280;22266;52.340;4.962;2024-02-14T00:52:04;101081.44;;;8.12;100.00
36222;BME280;22266;52.340;4.962;2024-02-14T00:54:30;101087.09;;;8.17;100.00
36222;BME280;22266;52.340;4.962;2024-02-14T00:56:57;101085.41;;;8.24;100.00
36222;BME280;22266;52.340;4.962;2024-02-14T00:59:23;101095.63;;;8.21;100.00
36222;BME280;22266;52.340;4.962;2024-02-14T01:01:51;101085.75;;;8.21;100.00
36222;BME280;22266;52.340;4.962;2024-02-14T01:04:19;101094.09;;;8.26;100.00
36222;BME280;22266;52.340;4.962;2024-02-14T01:06:45;101096.78;;;8.26;100.00
36222;BME280;22266;52.340;4.962;2024-02-14T01:09:12;101089.22;;;8.30;100.00
36222;BME280;22266;52.340;4.962;2024-02-14T01:11:38;101091.75;;;8.31;100.00
36222;BME280;22266;52.340;4.962;2024-02-14T01:14:05;101093.09;;;8.35;100.00
36222;BME280;22266;52.340;4.962;2024-02-14T01:16:32;101091.09;;;8.37;100.00
36222;BME280;22266;52.340;4.962;2024-02-14T01:18:59;101090.25;;;8.37;100.00
36222;BME280;22266;52.340;4.962;2024-02-14T01:21:26;101091.38;;;8.34;100.00
36222;BME280;22266;52.340;4.962;2024-02-14T01:23:52;101088.25;;;8.39;100.00
36222;BME280;22266;52.340;4.962;2024-02-14T01:26:19;101094.44;;;8.39;100.00
36222;BME280;22266;52.340;4.962;2024-02-14T01:28:47;101096.44;;;8.37;100.00
36222;BME280;22266;52.340;4.962;2024-02-14T01:31:14;101094.59;;;8.38;100.00
36222;BME280;22266;52.340;4.962;2024-02-14T01:33:40;101102.13;;;8.42;100.00
36222;BME280;22266;52.340;4.962;2024-02-14T01:36:07;101104.16;;;8.40;100.00
36222;BME280;22266;52.340;4.962;2024-02-14T01:38:34;101096.09;;;8.40;100.00
36222;BME280;22266;52.340;4.962;2024-02-14T01:41:03;101109.69;;;8.39;100.00
36222;BME280;22266;52.340;4.962;2024-02-14T01:43:30;101105.00;;;8.41;100.00
36222;BME280;22266;52.340;4.962;2024-02-14T01:46:05;101098.56;;;8.50;100.00
36222;BME280;22266;52.340;4.962;2024-02-14T01:48:33;101098.75;;;8.49;100.00
36222;BME280;22266;52.340;4.962;2024-02-14T01:51:02;101102.75;;;8.53;100.00
36222;BME280;22266;52.340;4.962;2024-02-14T01:53:30;101110.81;;;8.53;100.00
36222;BME280;22266;52.340;4.962;2024-02-14T01:55:59;101104.63;;;8.52;100.00
36222;BME280;22266;52.340;4.962;2024-02-14T01:58:26;101109.16;;;8.52;100.00
36222;BME280;22266;52.340;4.962;2024-02-14T02:00:54;101114.47;;;8.60;100.00
36222;BME280;22266;52.340;4.962;2024-02-14T02:03:26;101116.47;;;8.58;100.00
36222;BME280;22266;52.340;4.962;2024-02-14T02:05:53;101114.47;;;8.60;100.00
36222;BME280;22266;52.340;4.962;2024-02-14T02:08:21;101116.94;;;8.70;100.00
36222;BME280;22266;52.340;4.962;2024-02-14T02:10:48;101117.44;;;8.73;100.00
36222;BME280;22266;52.340;4.962;2024-02-14T02:13:14;101118.94;;;8.76;100.00
36222;BME280;22266;52.340;4.962;2024-02-14T02:15:42;101120.09;;;8.73;100.00
36222;BME280;22266;52.340;4.962;2024-02-14T02:18:12;101115.03;;;8.78;100.00
36222;BME280;22266;52.340;4.962;2024-02-14T02:20:39;101118.75;;;8.77;100.00
36222;BME280;22266;52.340;4.962;2024-02-14T02:23:12;101120.25;;;8.80;100.00
36222;BME280;22266;52.340;4.962;2024-02-14T02:25:42;101125.63;;;8.80;100.00
36222;BME280;22266;52.340;4.962;2024-02-14T02:28:09;101126.16;;;8.75;100.00
36222;BME280;22266;52.340;4.962;2024-02-14T02:30:36;101115.88;;;8.79;100.00
36222;BME280;22266;52.340;4.962;2024-02-14T02:33:04;101122.41;;;8.84;100.00
36222;BME280;22266;52.340;4.962;2024-02-14T02:35:32;101117.16;;;8.91;100.00
36222;BME280;22266;52.340;4.962;2024-02-14T02:37:59;101122.41;;;8.84;100.00
36222;BME280;22266;52.340;4.962;2024-02-14T02:40:26;101124.56;;;8.89;100.00
36222;BME280;22266;52.340;4.962;2024-02-14T02:42:54;101121.38;;;8.85;100.00
36222;BME280;22266;52.340;4.962;2024-02-14T02:45:20;101118.50;;;8.87;100.00
36222;BME280;22266;52.340;4.962;2024-02-14T02:47:47;101127.06;;;8.90;100.00
36222;BME280;22266;52.340;4.962;2024-02-14T02:50:14;101127.25;;;8.89;100.00
36222;BME280;22266;52.340;4.962;2024-02-14T02:52:41;101123.88;;;8.87;100.00
36222;BME280;22266;52.340;4.962;2024-02-14T02:55:08;101116.22;;;8.84;100.00
36222;BME280;22266;52.340;4.962;2024-02-14T02:57:35;101122.72;;;8.89;100.00
36222;BME280;22266;52.340;4.962;2024-02-14T03:00:07;101124.56;;;8.89;100.00
36222;BME280;22266;52.340;4.962;2024-02-14T03:02:35;101121.19;;;8.87;100.00
36222;BME280;22266;52.340;4.962;2024-02-14T03:05:04;101130.06;;;8.96;100.00
36222;BME280;22266;52.340;4.962;2024-02-14T03:07:36;101132.38;;;8.99;100.00
36222;BME280;22266;52.340;4.962;2024-02-14T03:10:04;101125.16;;;8.99;100.00
36222;BME280;22266;52.340;4.962;2024-02-14T03:12:31;101128.50;;;9.01;100.00
36222;BME280;22266;52.340;4.962;2024-02-14T03:15:03;101125.09;;;9.07;100.00
36222;BME280;22266;52.340;4.962;2024-02-14T03:17:31;101127.16;;;9.05;100.00
36222;BME280;22266;52.340;4.962;2024-02-14T03:19:58;101121.97;;;9.04;100.00
36222;BME280;22266;52.340;4.962;2024-02-14T03:22:25;101139.41;;;9.08;100.00
36222;BME280;22266;52.340;4.962;2024-02-14T03:24:51;101131.16;;;9.09;100.00
36222;BME280;22266;52.340;4.962;2024-02-14T03:27:18;101130.63;;;9.14;100.00
36222;BME280;22266;52.340;4.962;2024-02-14T03:29:45;101134.31;;;9.13;100.00
36222;BME280;22266;52.340;4.962;2024-02-14T03:32:13;101136.66;;;9.16;100.00
36222;BME280;22266;52.340;4.962;2024-02-14T03:34:40;101140.47;;;9.22;100.00
36222;BME280;22266;52.340;4.962;2024-02-14T03:37:07;101138.63;;;9.22;100.00
36222;BME280;22266;52.340;4.962;2024-02-14T03:39:33;101140.28;;;9.23;100.00
36222;BME280;22266;52.340;4.962;2024-02-14T03:42:00;101144.47;;;9.26;100.00
36222;BME280;22266;52.340;4.962;2024-02-14T03:44:29;101138.75;;;9.29;100.00
36222;BME280;22266;52.340;4.962;2024-02-14T03:46:57;101146.13;;;9.27;100.00
36222;BME280;22266;52.340;4.962;2024-02-14T03:49:23;101132.72;;;9.27;100.00
36222;BME280;22266;52.340;4.962;2024-02-14T03:51:52;101152.81;;;9.31;100.00
36222;BME280;22266;52.340;4.962;2024-02-14T03:54:21;101156.25;;;9.25;100.00
36222;BME280;22266;52.340;4.962;2024-02-14T03:56:47;101145.97;;;9.28;100.00
36222;BME280;22266;52.340;4.962;2024-02-14T03:59:14;101150.81;;;9.33;100.00
36222;BME280;22266;52.340;4.962;2024-02-14T04:01:44;101149.25;;;9.38;100.00
36222;BME280;22266;52.340;4.962;2024-02-14T04:04:14;101168.72;;;9.40;100.00
36222;BME280;22266;52.340;4.962;2024-02-14T04:06:40;101163.03;;;9.35;100.00
36222;BME280;22266;52.340;4.962;2024-02-14T04:09:09;101156.28;;;9.39;100.00
36222;BME280;22266;52.340;4.962;2024-02-14T04:11:35;101156.13;;;9.41;100.00
36222;BME280;22266;52.340;4.962;2024-02-14T04:14:03;101158.97;;;9.39;100.00
36222;BME280;22266;52.340;4.962;2024-02-14T04:16:29;101169.84;;;9.46;100.00
36222;BME280;22266;52.340;4.962;2024-02-14T04:18:56;101178.75;;;9.47;100.00
36222;BME280;22266;52.340;4.962;2024-02-14T04:21:23;101180.59;;;9.46;100.00
36222;BME280;22266;52.340;4.962;2024-02-14T04:23:50;101177.72;;;9.48;100.00
36222;BME280;22266;52.340;4.962;2024-02-14T04:26:22;101182.25;;;9.47;100.00
36222;BME280;22266;52.340;4.962;2024-02-14T04:28:49;101187.09;;;9.52;100.00
36222;BME280;22266;52.340;4.962;2024-02-14T04:31:15;101187.63;;;9.47;100.00
36222;BME280;22266;52.340;4.962;2024-02-14T04:33:42;101186.94;;;9.53;100.00
36222;BME280;22266;52.340;4.962;2024-02-14T04:36:09;101195.00;;;9.53;100.00
36222;BME280;22266;52.340;4.962;2024-02-14T04:38:38;101199.66;;;9.59;100.00
36222;BME280;22266;52.340;4.962;2024-02-14T04:41:05;101182.53;;;9.60;100.00
36222;BME280;22266;52.340;4.962;2024-02-14T04:43:31;101195.50;;;9.57;100.00
36222;BME280;22266;52.340;4.962;2024-02-14T04:45:58;101196.84;;;9.53;100.00
36222;BME280;22266;52.340;4.962;2024-02-14T04:48:25;101196.47;;;9.56;100.00
36222;BME280;22266;52.340;4.962;2024-02-14T04:50:52;101189.56;;;9.61;100.00
36222;BME280;22266;52.340;4.962;2024-02-14T04:53:19;101197.16;;;9.58;100.00
36222;BME280;22266;52.340;4.962;2024-02-14T04:55:46;101207.56;;;9.61;100.00
36222;BME280;22266;52.340;4.962;2024-02-14T04:58:12;101214.25;;;9.65;100.00
36222;BME280;22266;52.340;4.962;2024-02-14T05:00:39;101212.25;;;9.59;100.00
36222;BME280;22266;52.340;4.962;2024-02-14T05:03:06;101217.81;;;9.57;100.00
36222;BME280;22266;52.340;4.962;2024-02-14T05:05:32;101226.19;;;9.62;100.00
36222;BME280;22266;52.340;4.962;2024-02-14T05:08:00;101225.47;;;9.69;100.00
36222;BME280;22266;52.340;4.962;2024-02-14T05:10:26;101222.47;;;9.63;100.00
36222;BME280;22266;52.340;4.962;2024-02-14T05:12:53;101228.03;;;9.62;100.00
36222;BME280;22266;52.340;4.962;2024-02-14T05:15:20;101226.31;;;9.69;100.00
36222;BME280;22266;52.340;4.962;2024-02-14T05:17:47;101229.63;;;9.71;100.00
36222;BME280;22266;52.340;4.962;2024-02-14T05:20:15;101229.09;;;9.76;100.00
36222;BME280;22266;52.340;4.962;2024-02-14T05:22:42;101231.63;;;9.77;100.00
36222;BME280;22266;52.340;4.962;2024-02-14T05:25:09;101230.78;;;9.77;100.00
36222;BME280;22266;52.340;4.962;2024-02-14T05:27:36;101232.47;;;9.78;100.00
36222;BME280;22266;52.340;4.962;2024-02-14T05:30:04;101227.91;;;9.78;100.00
36222;BME280;22266;52.340;4.962;2024-02-14T05:32:35;101223.72;;;9.76;100.00
36222;BME280;22266;52.340;4.962;2024-02-14T05:35:02;101230.97;;;9.75;100.00
36222;BME280;22266;52.340;4.962;2024-02-14T05:37:32;101235.97;;;9.78;100.00
36222;BME280;22266;52.340;4.962;2024-02-14T05:40:01;101238.66;;;9.78;100.00
36222;BME280;22266;52.340;4.962;2024-02-14T05:42:28;101234.97;;;9.79;100.00
36222;BME280;22266;52.340;4.962;2024-02-14T05:44:55;101241.16;;;9.80;100.00
36222;BME280;22266;52.340;4.962;2024-02-14T05:47:21;101241.00;;;9.81;100.00
36222;BME280;22266;52.340;4.962;2024-02-14T05:49:48;101238.97;;;9.83;100.00
36222;BME280;22266;52.340;4.962;2024-02-14T05:52:15;101238.97;;;9.83;100.00
36222;BME280;22266;52.340;4.962;2024-02-14T05:54:42;101244.34;;;9.83;100.00
36222;BME280;22266;52.340;4.962;2024-02-14T05:57:09;101250.09;;;9.80;100.00
36222;BME280;22266;52.340;4.962;2024-02-14T05:59:36;101260.84;;;9.80;100.00
36222;BME280;22266;52.340;4.962;2024-02-14T06:02:02;101252.25;;;9.85;100.00
36222;BME280;22266;52.340;4.962;2024-02-14T06:04:31;101257.06;;;9.89;100.00
36222;BME280;22266;52.340;4.962;2024-02-14T06:06:58;101267.63;;;9.91;100.00
36222;BME280;22266;52.340;4.962;2024-02-14T06:09:25;101263.09;;;9.91;100.00
36222;BME280;22266;52.340;4.962;2024-02-14T06:11:53;101269.50;;;9.90;100.00
36222;BME280;22266;52.340;4.962;2024-02-14T06:14:20;101268.38;;;9.85;100.00
36222;BME280;22266;52.340;4.962;2024-02-14T06:16:46;101270.03;;;9.86;100.00
36222;BME280;22266;52.340;4.962;2024-02-14T06:19:13;101267.47;;;9.93;100.00
36222;BME280;22266;52.340;4.962;2024-02-14T06:21:40;101271.84;;;9.94;100.00
36222;BME280;22266;52.340;4.962;2024-02-14T06:24:06;101267.09;;;9.96;100.00
36222;BME280;22266;52.340;4.962;2024-02-14T06:26:33;101279.56;;;9.97;100.00
36222;BME280;22266;52.340;4.962;2024-02-14T06:29:00;101277.84;;;9.96;100.00
36222;BME280;22266;52.340;4.962;2024-02-14T06:31:26;101273.78;;;10.00;100.00
36222;BME280;22266;52.340;4.962;2024-02-14T06:33:53;101277.22;;;9.94;100.00
36222;BME280;22266;52.340;4.962;2024-02-14T06:36:20;101290.94;;;9.99;100.00
36222;BME280;22266;52.340;4.962;2024-02-14T06:38:47;101290.13;;;9.98;100.00
36222;BME280;22266;52.340;4.962;2024-02-14T06:41:14;101289.63;;;9.95;100.00
36222;BME280;22266;52.340;4.962;2024-02-14T06:43:40;101297.16;;;9.99;100.00
36222;BME280;22266;52.340;4.962;2024-02-14T06:46:07;101301.91;;;9.97;100.00
36222;BME280;22266;52.340;4.962;2024-02-14T06:48:33;101300.34;;;10.03;100.00
36222;BME280;22266;52.340;4.962;2024-02-14T06:51:01;101303.03;;;10.03;100.00
36222;BME280;22266;52.340;4.962;2024-02-14T06:53:27;101301.72;;;9.99;100.00
36222;BME280;22266;52.340;4.962;2024-02-14T06:55:54;101294.97;;;10.03;100.00
36222;BME280;22266;52.340;4.962;2024-02-14T06:58:21;101297.47;;;10.04;100.00
36222;BME280;22266;52.340;4.962;2024-02-14T07:00:47;101297.34;;;9.98;100.00
36222;BME280;22266;52.340;4.962;2024-02-14T07:03:14;101303.84;;;10.03;100.00
36222;BME280;22266;52.340;4.962;2024-02-14T07:05:41;101305.03;;;10.24;100.00
36222;BME280;22266;52.340;4.962;2024-02-14T07:08:08;101307.81;;;10.38;100.00
36222;BME280;22266;52.340;4.962;2024-02-14T07:10:35;101310.38;;;10.55;100.00
36222;BME280;22266;52.340;4.962;2024-02-14T07:13:02;101313.72;;;10.72;100.00
36222;BME280;22266;52.340;4.962;2024-02-14T07:15:29;101315.22;;;10.74;100.00
36222;BME280;22266;52.340;4.962;2024-02-14T07:17:56;101317.19;;;10.80;100.00
36222;BME280;22266;52.340;4.962;2024-02-14T07:20:24;101322.75;;;10.94;100.00
36222;BME280;22266;52.340;4.962;2024-02-14T07:22:54;101320.91;;;11.09;100.00
36222;BME280;22266;52.340;4.962;2024-02-14T07:25:23;101322.19;;;11.13;100.00
36222;BME280;22266;52.340;4.962;2024-02-14T07:27:49;101318.50;;;11.14;100.00
36222;BME280;22266;52.340;4.962;2024-02-14T07:30:16;101316.91;;;11.20;100.00
36222;BME280;22266;52.340;4.962;2024-02-14T07:32:44;101313.03;;;11.22;100.00
36222;BME280;22266;52.340;4.962;2024-02-14T07:35:11;101319.16;;;11.31;100.00
36222;BME280;22266;52.340;4.962;2024-02-14T07:37:39;101326.66;;;11.35;100.00
36222;BME280;22266;52.340;4.962;2024-02-14T07:40:06;101321.00;;;11.30;100.00
36222;BME280;22266;52.340;4.962;2024-02-14T07:42:33;101321.19;;;11.29;100.00
36222;BME280;22266;52.340;4.962;2024-02-14T07:45:00;101325.75;;;11.28;100.00
36222;BME280;22266;52.340;4.962;2024-02-14T07:47:27;101327.50;;;11.21;100.00
36222;BME280;22266;52.340;4.962;2024-02-14T07:49:55;101328.69;;;11.33;100.00
36222;BME280;22266;52.340;4.962;2024-02-14T07:52:21;101328.69;;;11.33;100.00
36222;BME280;22266;52.340;4.962;2024-02-14T07:54:52;101330.50;;;11.26;100.00
36222;BME280;22266;52.340;4.962;2024-02-14T07:57:21;101336.50;;;11.28;100.00
36222;BME280;22266;52.340;4.962;2024-02-14T07:59:48;101341.28;;;11.26;100.00
36222;BME280;22266;52.340;4.962;2024-02-14T08:02:15;101347.88;;;11.38;100.00
36222;BME280;22266;52.340;4.962;2024-02-14T08:04:41;101342.53;;;11.45;100.00
36222;BME280;22266;52.340;4.962;2024-02-14T08:07:09;101345.06;;;11.47;100.00
36222;BME280;22266;52.340;4.962;2024-02-14T08:09:36;101347.19;;;11.51;100.00
36222;BME280;22266;52.340;4.962;2024-02-14T08:12:03;101348.97;;;11.59;100.00
36222;BME280;22266;52.340;4.962;2024-02-14T08:14:30;101347.66;;;11.55;100.00
36222;BME280;22266;52.340;4.962;2024-02-14T08:16:56;101347.47;;;11.56;100.00
36222;BME280;22266;52.340;4.962;2024-02-14T08:19:23;101351.44;;;11.60;100.00
36222;BME280;22266;52.340;4.962;2024-02-14T08:21:50;101357.78;;;11.68;100.00
36222;BME280;22266;52.340;4.962;2024-02-14T08:24:16;101348.28;;;11.72;100.00
36222;BME280;22266;52.340;4.962;2024-02-14T08:26:44;101357.66;;;11.76;100.00
36222;BME280;22266;52.340;4.962;2024-02-14T08:29:10;101358.13;;;11.79;100.00
36222;BME280;22266;52.340;4.962;2024-02-14T08:31:38;101348.16;;;11.80;100.00
36222;BME280;22266;52.340;4.962;2024-02-14T08:34:05;101351.59;;;11.74;100.00
36222;BME280;22266;52.340;4.962;2024-02-14T08:36:31;101356.06;;;11.67;100.00
36222;BME280;22266;52.340;4.962;2024-02-14T08:38:59;101358.03;;;11.73;100.00
36222;BME280;22266;52.340;4.962;2024-02-14T08:41:26;101360.34;;;11.76;100.00
36222;BME280;22266;52.340;4.962;2024-02-14T08:43:52;101358.75;;;11.81;100.00
36222;BME280;22266;52.340;4.962;2024-02-14T08:46:19;101366.31;;;11.86;100.00
36222;BME280;22266;52.340;4.962;2024-02-14T08:48:45;101366.13;;;11.87;100.00
36222;BME280;22266;52.340;4.962;2024-02-14T08:51:15;101363.50;;;11.94;100.00
36222;BME280;22266;52.340;4.962;2024-02-14T08:53:43;101366.03;;;11.96;100.00
36222;BME280;22266;52.340;4.962;2024-02-14T08:56:12;101375.53;;;11.92;100.00
36222;BME280;22266;52.340;4.962;2024-02-14T08:58:39;101369.66;;;11.88;100.00
36222;BME280;22266;52.340;4.962;2024-02-14T09:01:05;101380.09;;;11.91;100.00
36222;BME280;22266;52.340;4.962;2024-02-14T09:03:43;101376.53;;;11.91;100.00
36222;BME280;22266;52.340;4.962;2024-02-14T09:06:16;101379.22;;;11.91;100.00
36222;BME280;22266;52.340;4.962;2024-02-14T09:08:44;101386.22;;;11.85;100.00
36222;BME280;22266;52.340;4.962;2024-02-14T09:11:11;101387.50;;;11.89;100.00
36222;BME280;22266;52.340;4.962;2024-02-14T09:13:38;101384.25;;;11.94;100.00
36222;BME280;22266;52.340;4.962;2024-02-14T09:16:09;101388.53;;;11.88;100.00
36222;BME280;22266;52.340;4.962;2024-02-14T09:18:36;101386.22;;;11.85;100.00
36222;BME280;22266;52.340;4.962;2024-02-14T09:21:03;101385.72;;;11.81;100.00
36222;BME280;22266;52.340;4.962;2024-02-14T09:23:32;101390.19;;;11.74;100.00
36222;BME280;22266;52.340;4.962;2024-02-14T09:25:59;101391.78;;;11.69;100.00
36222;BME280;22266;52.340;4.962;2024-02-14T09:28:26;101391.78;;;11.69;100.00
36222;BME280;22266;52.340;4.962;2024-02-14T09:30:52;101387.91;;;11.71;100.00
36222;BME280;22266;52.340;4.962;2024-02-14T09:33:19;101388.16;;;11.76;100.00
36222;BME280;22266;52.340;4.962;2024-02-14T09:35:47;101378.00;;;11.78;100.00
36222;BME280;22266;52.340;4.962;2024-02-14T09:38:14;101382.50;;;11.86;100.00
36222;BME280;22266;52.340;4.962;2024-02-14T09:40:41;101383.84;;;11.82;100.00
36222;BME280;22266;52.340;4.962;2024-02-14T09:43:23;101384.25;;;11.79;100.00
36222;BME280;22266;52.340;4.962;2024-02-14T09:45:51;101394.97;;;11.72;100.00
36222;BME280;22266;52.340;4.962;2024-02-14T09:48:21;101398.13;;;11.61;100.00
36222;BME280;22266;52.340;4.962;2024-02-14T09:50:48;101393.97;;;11.44;100.00
36222;BME280;22266;52.340;4.962;2024-02-14T09:53:16;101400.06;;;11.37;100.00
36222;BME280;22266;52.340;4.962;2024-02-14T09:55:45;101402.22;;;11.27;100.00
36222;BME280;22266;52.340;4.962;2024-02-14T09:58:12;101401.38;;;11.12;100.00
36222;BME280;22266;52.340;4.962;2024-02-14T10:00:39;101397.34;;;10.93;100.00
36222;BME280;22266;52.340;4.962;2024-02-14T10:03:08;101404.94;;;10.89;100.00
36222;BME280;22266;52.340;4.962;2024-02-14T10:05:35;101396.78;;;10.98;100.00
36222;BME280;22266;52.340;4.962;2024-02-14T10:08:03;101401.19;;;10.99;100.00
36222;BME280;22266;52.340;4.962;2024-02-14T10:10:32;101402.84;;;11.00;100.00
36222;BME280;22266;52.340;4.962;2024-02-14T10:13:04;101403.56;;;10.94;100.00
36222;BME280;22266;52.340;4.962;2024-02-14T10:15:32;101409.50;;;10.89;100.00
36222;BME280;22266;52.340;4.962;2024-02-14T10:17:59;101418.81;;;10.86;100.00
36222;BME280;22266;52.340;4.962;2024-02-14T10:20:29;101412.25;;;10.81;100.00
36222;BME280;22266;52.340;4.962;2024-02-14T10:23:03;101410.25;;;10.83;100.00
36222;BME280;22266;52.340;4.962;2024-02-14T10:25:31;101413.41;;;10.86;100.00
36222;BME280;22266;52.340;4.962;2024-02-14T10:28:06;101414.88;;;10.89;100.00
36222;BME280;22266;52.340;4.962;2024-02-14T10:30:37;101417.09;;;10.85;100.00
36222;BME280;22266;52.340;4.962;2024-02-14T10:33:08;101415.06;;;10.87;100.00
36222;BME280;22266;52.340;4.962;2024-02-14T10:35:52;101413.78;;;10.83;100.00
36222;BME280;22266;52.340;4.962;2024-02-14T10:38:25;101422.31;;;10.87;100.00
36222;BME280;22266;52.340;4.962;2024-02-14T10:40:54;101418.81;;;10.86;100.00
36222;BME280;22266;52.340;4.962;2024-02-14T10:43:21;101413.09;;;10.81;100.00
36222;BME280;22266;52.340;4.962;2024-02-14T10:45:48;101415.44;;;10.84;100.00
36222;BME280;22266;52.340;4.962;2024-02-14T10:48:16;101413.03;;;10.89;100.00
36222;BME280;22266;52.340;4.962;2024-02-14T10:50:44;101427.44;;;10.97;100.00
36222;BME280;22266;52.340;4.962;2024-02-14T10:53:14;101420.75;;;10.93;100.00
36222;BME280;22266;52.340;4.962;2024-02-14T10:55:46;101422.88;;;10.97;100.00
36222;BME280;22266;52.340;4.962;2024-02-14T10:58:16;101417.97;;;11.01;100.00
36222;BME280;22266;52.340;4.962;2024-02-14T11:00:47;101419.28;;;11.05;100.00
36222;BME280;22266;52.340;4.962;2024-02-14T11:03:14;101423.47;;;11.07;100.00
36222;BME280;22266;52.340;4.962;2024-02-14T11:05:48;101414.56;;;11.07;100.00
36222;BME280;22266;52.340;4.962;2024-02-14T11:08:19;101419.13;;;11.06;100.00
36222;BME280;22266;52.340;4.962;2024-02-14T11:10:55;101422.75;;;11.28;100.00
36222;BME280;22266;52.340;4.962;2024-02-14T11:13:29;101424.44;;;11.44;100.00
36222;BME280;22266;52.340;4.962;2024-02-14T11:16:02;101424.00;;;11.55;100.00
36222;BME280;22266;52.340;4.962;2024-02-14T11:18:31;101402.94;;;11.66;100.00
36222;BME280;22266;52.340;4.962;2024-02-14T11:21:04;101405.84;;;11.79;100.00
36222;BME280;22266;52.340;4.962;2024-02-14T11:23:31;101398.31;;;11.89;100.00
36222;BME280;22266;52.340;4.962;2024-02-14T11:26:02;101403.25;;;11.85;100.00
36222;BME280;22266;52.340;4.962;2024-02-14T11:28:30;101406.59;;;11.87;100.00
36222;BME280;22266;52.340;4.962;2024-02-14T11:31:01;101402.50;;;11.92;100.00
36222;BME280;22266;52.340;4.962;2024-02-14T11:33:30;101406.03;;;11.92;100.00
36222;BME280;22266;52.340;4.962;2024-02-14T11:35:57;101412.81;;;11.88;100.00
36222;BME280;22266;52.340;4.962;2024-02-14T11:38:25;101406.50;;;11.96;100.00
36222;BME280;22266;52.340;4.962;2024-02-14T11:40:56;101403.69;;;11.89;100.00
36222;BME280;22266;52.340;4.962;2024-02-14T11:43:25;101407.88;;;11.92;100.00
36222;BME280;22266;52.340;4.962;2024-02-14T11:45:52;101404.78;;;11.95;100.00
36222;BME280;22266;52.340;4.962;2024-02-14T11:48:19;101396.16;;;11.99;100.00
36222;BME280;22266;52.340;4.962;2024-02-14T11:50:47;101397.25;;;12.05;100.00
36222;BME280;22266;52.340;4.962;2024-02-14T11:53:14;101385.03;;;12.09;100.00
36222;BME280;22266;52.340;4.962;2024-02-14T11:55:45;101400.28;;;12.17;100.00
36222;BME280;22266;52.340;4.962;2024-02-14T11:58:16;101396.75;;;12.16;100.00
36222;BME280;22266;52.340;4.962;2024-02-14T12:00:44;101390.66;;;12.07;100.00
36222;BME280;22266;52.340;4.962;2024-02-14T12:03:22;101394.69;;;12.18;100.00
36222;BME280;22266;52.340;4.962;2024-02-14T12:05:51;101375.22;;;12.23;100.00
36222;BME280;22266;52.340;4.962;2024-02-14T12:08:19;101378.75;;;12.23;100.00
36222;BME280;22266;52.340;4.962;2024-02-14T12:10:46;101380.69;;;12.29;100.00
36222;BME280;22266;52.340;4.962;2024-02-14T12:13:23;101376.78;;;12.32;100.00
36222;BME280;22266;52.340;4.962;2024-02-14T12:15:51;101373.66;;;12.35;100.00
36222;BME280;22266;52.340;4.962;2024-02-14T12:18:19;101383.19;;;12.31;100.00
36222;BME280;22266;52.340;4.962;2024-02-14T12:20:47;101384.69;;;12.33;100.00
36222;BME280;22266;52.340;4.962;2024-02-14T12:23:22;101380.75;;;12.36;100.00
36222;BME280;22266;52.340;4.962;2024-02-14T12:25:50;101377.16;;;12.29;100.00
36222;BME280;22266;52.340;4.962;2024-02-14T12:28:18;101372.00;;;12.34;100.00
36222;BME280;22266;52.340;4.962;2024-02-14T12:30:49;101380.34;;;12.39;100.00
36222;BME280;22266;52.340;4.962;2024-02-14T12:33:17;101372.84;;;12.34;100.00
36222;BME280;22266;52.340;4.962;2024-02-14T12:35:45;101384.94;;;12.38;100.00
36222;BME280;22266;52.340;4.962;2024-02-14T12:38:14;101385.31;;;12.35;100.00
36222;BME280;22266;52.340;4.962;2024-02-14T12:40:41;101377.78;;;12.31;100.00
36222;BME280;22266;52.340;4.962;2024-02-14T12:43:09;101382.53;;;12.07;100.00
36222;BME280;22266;52.340;4.962;2024-02-14T12:45:36;101389.38;;;11.88;100.00
36222;BME280;22266;52.340;4.962;2024-02-14T12:48:04;101386.09;;;11.78;100.00